createdAt,value
2022-08-21T00:00:24.247Z,101043.47
2022-08-21T00:02:57.926Z,101052.28
2022-08-21T00:05:27.081Z,101057.13
2022-08-21T00:07:53.832Z,101021.84
2022-08-21T00:10:20.393Z,101064.19
2022-08-21T00:12:47.751Z,101065.47
2022-08-21T00:15:22.880Z,101017.44
2022-08-21T00:17:49.901Z,101040.34
2022-08-21T00:20:17.182Z,101068.66
2022-08-21T00:22:44.071Z,101069.25
2022-08-21T00:25:11.385Z,101027.81
2022-08-21T00:27:38.484Z,101060.13
2022-08-21T00:30:07.423Z,101016.34
2022-08-21T00:32:34.798Z,101047.88
2022-08-21T00:35:01.271Z,101053.06
2022-08-21T00:37:28.053Z,101027.31
2022-08-21T00:39:57.557Z,101057.41
2022-08-21T00:42:24.448Z,101025.09
2022-08-21T00:44:51.768Z,101041.44
2022-08-21T00:47:19.530Z,101011.53
2022-08-21T00:49:46.665Z,101069.41
2022-08-21T00:52:23.157Z,101058.47
2022-08-21T00:54:53.479Z,101047.72
2022-08-21T00:57:34.047Z,101048.94
2022-08-21T01:00:04.373Z,101066.34
2022-08-21T01:02:32.022Z,101046.56
2022-08-21T01:04:58.500Z,101040.44
2022-08-21T01:07:27.684Z,101053.06
2022-08-21T01:09:54.390Z,101015.31
2022-08-21T01:12:21.069Z,101028.50
2022-08-21T01:14:47.893Z,101051.13
2022-08-21T01:17:16.995Z,101042.06
2022-08-21T01:19:44.265Z,101007.94
2022-08-21T01:22:10.995Z,101017.88
2022-08-21T01:24:37.420Z,101052.25
2022-08-21T01:27:04.964Z,101015.66
2022-08-21T01:29:51.287Z,101031.78
2022-08-21T01:32:19.861Z,101025.78
2022-08-21T01:34:49.317Z,101032.28
2022-08-21T01:37:18.000Z,101024.69
2022-08-21T01:39:45.880Z,101032.66
2022-08-21T01:42:12.587Z,101054.34
2022-08-21T01:44:39.480Z,101052.47
2022-08-21T01:47:09.115Z,101043.06
2022-08-21T01:49:37.124Z,101057.44
2022-08-21T01:52:04.875Z,101041.94
2022-08-21T01:54:31.959Z,101050.81
2022-08-21T01:56:59.862Z,101063.47
2022-08-21T01:59:27.127Z,101044.34
2022-08-21T02:01:57.572Z,101011.63
2022-08-21T02:04:24.601Z,101030.84
2022-08-21T02:06:51.245Z,101049.34
2022-08-21T02:09:18.346Z,101070.69
2022-08-21T02:11:45.244Z,101071.44
2022-08-21T02:14:14.980Z,101050.41
2022-08-21T02:16:43.772Z,101042.75
2022-08-21T02:19:11.538Z,101037.72
2022-08-21T02:21:38.086Z,101057.97
2022-08-21T02:24:05.268Z,101016.94
2022-08-21T02:26:32.012Z,101032.78
2022-08-21T02:28:58.657Z,101060.31
2022-08-21T02:31:25.715Z,101040.94
2022-08-21T02:33:53.111Z,101029.88
2022-08-21T02:36:19.783Z,101037.53
2022-08-21T02:38:46.370Z,101036.13
2022-08-21T02:41:19.725Z,101020.78
2022-08-21T02:43:46.720Z,101052.97
2022-08-21T02:46:15.903Z,101006.84
2022-08-21T02:48:43.186Z,101025.16
2022-08-21T02:51:18.469Z,101031.75
2022-08-21T02:53:46.106Z,101003.97
2022-08-21T02:56:15.327Z,101042.53
2022-08-21T02:58:45.062Z,101034.72
2022-08-21T03:01:12.018Z,101058.03
2022-08-21T03:03:42.764Z,101055.16
2022-08-21T03:06:12.517Z,101024.75
2022-08-21T03:08:39.648Z,101035.84
2022-08-21T03:11:07.223Z,101047.94
2022-08-21T03:13:34.760Z,101041.25
2022-08-21T03:16:01.786Z,101047.81
2022-08-21T03:18:30.823Z,101026.03
2022-08-21T03:20:57.376Z,101003.56
2022-08-21T03:23:24.020Z,100994.03
2022-08-21T03:25:52.101Z,101034.41
2022-08-21T03:28:25.474Z,101010.66
2022-08-21T03:30:53.526Z,101016.63
2022-08-21T03:33:23.393Z,101032.47
2022-08-21T03:36:01.736Z,101070.44
2022-08-21T03:38:30.069Z,101034.41
2022-08-21T03:40:56.642Z,101031.88
2022-08-21T03:43:23.254Z,101017.34
2022-08-21T03:45:49.990Z,101053.19
2022-08-21T03:48:19.945Z,101030.59
2022-08-21T03:50:48.271Z,101030.00
2022-08-21T03:53:17.522Z,101013.22
2022-08-21T03:59:31.717Z,101066.56
2022-08-21T04:02:00.884Z,101055.03
2022-08-21T04:04:29.417Z,101043.22
2022-08-21T04:06:57.041Z,101021.31
2022-08-21T04:09:25.389Z,101057.88
2022-08-21T04:11:52.185Z,101039.94
2022-08-21T04:14:18.941Z,101076.13
2022-08-21T04:16:47.692Z,101022.41
2022-08-21T04:19:17.655Z,101067.28
2022-08-21T04:21:50.897Z,101044.38
2022-08-21T04:24:20.433Z,101051.19
2022-08-21T04:26:47.388Z,101027.66
2022-08-21T04:29:14.195Z,101057.09
2022-08-21T04:31:40.762Z,101078.44
2022-08-21T04:34:07.381Z,101039.66
2022-08-21T04:36:34.505Z,101082.28
2022-08-21T04:39:01.235Z,101021.31
2022-08-21T04:41:30.337Z,101052.31
2022-08-21T04:43:56.936Z,101072.06
2022-08-21T04:46:24.360Z,101012.03
2022-08-21T04:48:51.039Z,101035.69
2022-08-21T04:51:29.301Z,101032.00
2022-08-21T04:54:07.749Z,101039.41
2022-08-21T04:56:50.817Z,101057.31
2022-08-21T04:59:25.413Z,101050.38
2022-08-21T05:01:53.053Z,101050.53
2022-08-21T05:04:25.027Z,101038.91
2022-08-21T05:06:53.882Z,101070.94
2022-08-21T05:09:21.221Z,101056.03
2022-08-21T05:11:49.718Z,101072.81
2022-08-21T05:14:17.002Z,101066.72
2022-08-21T05:16:44.871Z,101078.25
2022-08-21T05:19:11.813Z,101089.78
2022-08-21T05:21:42.617Z,101097.31
2022-08-21T05:24:09.629Z,101091.50
2022-08-21T05:26:45.298Z,101080.53
2022-08-21T05:29:14.805Z,101078.22
2022-08-21T05:31:42.181Z,101080.47
2022-08-21T05:34:09.109Z,101081.66
2022-08-21T05:36:36.833Z,101100.00
2022-08-21T05:39:03.982Z,101107.69
2022-08-21T05:41:30.775Z,101093.16
2022-08-21T05:44:00.772Z,101082.19
2022-08-21T05:46:27.303Z,101098.59
2022-08-21T05:48:53.866Z,101086.09
2022-08-21T05:51:20.400Z,101095.88
2022-08-21T05:53:47.117Z,101096.00
2022-08-21T05:56:14.082Z,101108.47
2022-08-21T05:58:40.785Z,101104.69
2022-08-21T06:01:07.680Z,101122.50
2022-08-21T06:03:37.178Z,101112.47
2022-08-21T06:06:04.003Z,101120.13
2022-08-21T06:09:07.531Z,101125.22
2022-08-21T06:12:02.664Z,101070.72
2022-08-21T06:26:52.825Z,101059.88
2022-08-21T06:28:26.052Z,101059.66
2022-08-21T06:30:57.047Z,101072.34
2022-08-21T06:33:57.196Z,101082.72
2022-08-21T06:36:54.297Z,101059.34
2022-08-21T06:39:45.331Z,101099.47
2022-08-21T06:42:43.092Z,101060.94
2022-08-21T06:45:31.696Z,101105.16
2022-08-21T06:48:26.897Z,101093.63
2022-08-21T06:51:00.054Z,101069.72
2022-08-21T06:53:58.803Z,101127.63
2022-08-21T06:59:45.388Z,101060.91
2022-08-21T07:02:25.334Z,101093.63
2022-08-21T07:04:54.154Z,101071.44
2022-08-21T07:07:33.375Z,101072.88
2022-08-21T07:10:12.069Z,101068.28
2022-08-21T07:13:28.155Z,101058.53
2022-08-21T07:17:12.788Z,101064.13
2022-08-21T07:20:33.385Z,101054.44
2022-08-21T07:50:06.196Z,101050.88
2022-08-21T10:07:02.664Z,101059.34
2022-08-21T10:10:31.057Z,101040.00
2022-08-21T10:39:25.954Z,101043.28
2022-08-21T10:42:58.017Z,101091.47
2022-08-21T10:46:26.168Z,101092.09
2022-08-21T10:48:59.709Z,101087.28
2022-08-21T10:56:46.666Z,101089.19
2022-08-21T11:14:32.196Z,101033.22
2022-08-21T11:40:17.870Z,101074.38
2022-08-21T11:43:39.879Z,101089.78
2022-08-21T11:46:30.245Z,101075.84
2022-08-21T11:57:56.925Z,101069.81
2022-08-21T12:15:03.899Z,101044.19
2022-08-21T12:35:25.143Z,101040.97
2022-08-21T12:38:20.954Z,101022.31
2022-08-21T12:41:07.852Z,101012.22
2022-08-21T12:43:44.781Z,101002.19
2022-08-21T12:49:38.403Z,101026.91
2022-08-21T12:56:03.344Z,101010.72
2022-08-21T12:58:36.070Z,100994.19
2022-08-21T13:11:14.806Z,101023.84
2022-08-21T13:20:50.618Z,101001.09
2022-08-21T13:27:27.370Z,101041.63
2022-08-21T20:49:56.474Z,101089.09
2022-08-21T20:52:28.191Z,101060.63
2022-08-21T20:55:04.113Z,101066.16
2022-08-21T20:57:51.054Z,101056.34
2022-08-21T21:00:23.195Z,101090.22
2022-08-21T21:03:00.120Z,101088.91
2022-08-21T21:05:32.994Z,101037.56
2022-08-21T21:08:28.654Z,101061.16
2022-08-21T21:11:17.927Z,101047.81
2022-08-21T21:14:05.100Z,101093.53
2022-08-21T21:16:35.724Z,101044.25
2022-08-21T21:19:10.899Z,101089.94
2022-08-21T21:21:51.666Z,101033.25
2022-08-21T21:24:27.551Z,101066.72
2022-08-21T21:30:03.134Z,101076.50
2022-08-21T21:32:34.611Z,101094.38
2022-08-21T21:35:06.364Z,101078.50
2022-08-21T21:37:51.645Z,101053.38
2022-08-21T21:41:00.527Z,101105.00
2022-08-21T21:43:44.016Z,101064.88
2022-08-21T21:46:32.383Z,101105.28
2022-08-21T21:49:15.832Z,101110.72
2022-08-21T21:52:00.212Z,101096.63
2022-08-21T21:55:02.766Z,101086.22
2022-08-21T21:58:03.712Z,101104.69
2022-08-21T22:00:34.008Z,101089.00
2022-08-21T22:06:09.802Z,101087.31
2022-08-21T22:13:38.649Z,101115.97
2022-08-21T22:16:07.965Z,101110.09
2022-08-21T22:18:45.276Z,101051.53
2022-08-21T22:21:24.010Z,101117.44
2022-08-21T22:23:58.348Z,101073.13
2022-08-21T22:26:38.288Z,101070.78
2022-08-21T22:29:11.665Z,101103.00
2022-08-21T22:31:38.513Z,101111.47
2022-08-21T22:34:18.345Z,101122.03
2022-08-21T22:36:59.545Z,101128.28
2022-08-21T22:39:33.189Z,101076.44
2022-08-21T22:42:14.530Z,101103.34
2022-08-21T22:45:09.420Z,101117.44
2022-08-21T22:47:48.491Z,101104.09
2022-08-21T22:50:27.579Z,101130.78
2022-08-21T22:52:58.835Z,101097.00
2022-08-21T22:55:56.367Z,101061.84
2022-08-21T22:58:27.636Z,101088.75
2022-08-21T23:00:59.668Z,101129.09
2022-08-21T23:03:47.431Z,101126.47
2022-08-21T23:06:40.319Z,101102.41
2022-08-21T23:09:19.718Z,101073.78
2022-08-21T23:11:50.724Z,101078.03
2022-08-21T23:14:18.144Z,101105.34
2022-08-21T23:17:02.958Z,101127.94
2022-08-21T23:19:43.007Z,101100.00
2022-08-21T23:22:49.080Z,101114.75
2022-08-21T23:25:48.846Z,101124.97
2022-08-21T23:28:21.545Z,101122.94
2022-08-21T23:31:01.342Z,101125.75
2022-08-21T23:34:05.782Z,101111.78
2022-08-21T23:37:14.038Z,101121.84
2022-08-21T23:40:02.950Z,101089.00
2022-08-21T23:42:55.608Z,101096.69
2022-08-21T23:45:33.177Z,101120.28
2022-08-21T23:48:29.409Z,101123.78
2022-08-21T23:51:12.298Z,101080.84
2022-08-21T23:54:24.297Z,101119.63
2022-08-21T23:57:18.880Z,101122.84
